Bistriţa, Rumänien

04:20 AM EEST am 23. Mai 2017 (GMT +0300)
comuna IDECIU DE JOS MURES | | Change Station

Höhe 1247 ft 46.82 °N, 24.76 °E | Updated 6 seconds ago

Heiter
Heiter
47.1 °F
gefühlte 47 °F
N
0.0
Wind Wechselnd Wind aus Süd-Südwest
Gusts 0.0 mph

Heute
Max. -- | schwach -- °F
--% Regenrisiko
Gestern
Max. -- | schwach -- °F
Precip. -- inch
Druck 30.01 inch
Sichtweite 6.2 Meilen
Wolken
Windchill 47 °F
Taupunkt 44 °F
Feuchtigkeit 87%
Regen 0.00 inch
Schneehöhe Nicht verfügbar..
5:37 AM 8:58 PM
Letztes Viertel, 11% visible
METAR LRTM 230100Z AUTO 08006KT 9999 NCD 09/07 Q1016
Druck 30.01 inch
Sichtweite 6.2 Meilen
Wolken
Windchill 47 °F
Taupunkt 44 °F
Feuchtigkeit 87%
Regen 0.00 inch
Schneehöhe Nicht verfügbar..
5:37 AM 8:58 PM
Letztes Viertel, 11% visible
METAR LRTM 230100Z AUTO 08006KT 9999 NCD 09/07 Q1016

Get Severe Weather Alerts

Thanks for signing up!

Be on the lookout for a verification email in your inbox.

You'll start receiving the daily forecast at 6 AM.

×

10-Day Weather Forecast

×

Almanac

Astronomie

May. 23, 2017 Aufgang Untergang
Genaue Zeit
Bürgerliche Dämmerung
Nautische Dämmerung
Astronomische Dämmerung
Mond
Länge des sichtbaren Lichts
Tageslänge
Tomorrow will be .
, % of the Moon is Illuminated

Heutige Rekorde

Country Highs Country Lows

Community

WunderPhotos

Category 6

Welcome to Category 6. This is the collective home for Weather Underground's featured writeups by Dr. Jeff Masters (right), Bob Henson (left), Chris Burt, and other regular contributors.

Nearby

Luftqualität

  Luftqualität LQ Index Schadstoff
Not available.

Schneehöhe

Station Depth Höhe

Erdbebenaktivität

Stadt Distance Mag. Time & Date
Minimum magnitude displayed is 2.5.

küstennahe Wassertemperaturen

Ort Temperatur

Stations

Wetterstationen in der Umgebung

Stationsstandort Temp. Windchill Taupunkt Feuchtigkeit Wind Precip. Höhe Aktualisiert Art